Time;durP1;ratioP1;P1;durP2;ratioP2;P2;SDS_P1;SDS_P2;PMS_P1;PMS_P2;Temp;Humidity;BMP_temperature;BMP_pressure;BME280_temperature;BME280_humidity;BME280_pressure;Samples;Min_cycle;Max_cycle;Signal;HPM_P1;HPM_P2
2021/10/04 00:02:11;;;;;;;18.98;11.80;;;;;;;8.50;71.77;100769.59;1614185;88;21108;-72
2021/10/04 00:04:39;;;;;;;18.32;12.35;;;;;;;8.51;71.91;100768.51;1618615;87;21904;-71
2021/10/04 00:07:06;;;;;;;22.52;13.35;;;;;;;8.51;72.05;100770.68;1620314;88;21133;-71
2021/10/04 00:09:34;;;;;;;25.25;14.87;;;;;;;8.52;72.19;100765.48;1620325;88;21078;-69
2021/10/04 00:12:01;;;;;;;20.62;13.20;;;;;;;8.51;72.23;100754.20;1619641;88;21079;-71
2021/10/04 00:14:31;;;;;;;22.82;14.90;;;;;;;8.51;72.39;100741.84;1616884;88;21026;-73
2021/10/04 00:17:01;;;;;;;22.73;13.20;;;;;;;8.50;72.42;100745.70;1619697;88;21040;-70
2021/10/04 00:19:31;;;;;;;16.90;12.82;;;;;;;8.47;72.53;100758.61;1605437;88;21074;-72
2021/10/04 00:22:00;;;;;;;18.20;12.90;;;;;;;8.46;72.78;100747.91;1605563;88;21044;-71
2021/10/04 00:24:28;;;;;;;22.85;12.58;;;;;;;8.44;72.93;100749.55;1615055;88;21576;-72
2021/10/04 00:26:58;;;;;;;20.37;13.48;;;;;;;8.44;73.11;100752.84;1619097;86;21041;-70
2021/10/04 00:29:24;;;;;;;26.70;15.25;;;;;;;8.45;73.19;100747.07;1620219;88;21586;-71
2021/10/04 00:31:51;;;;;;;29.48;15.28;;;;;;;8.45;73.17;100738.83;1626118;87;21064;-71
2021/10/04 00:34:20;;;;;;;25.55;16.25;;;;;;;8.46;73.17;100736.34;1633774;85;21102;-71
2021/10/04 00:36:47;;;;;;;22.17;15.13;;;;;;;8.45;73.09;100730.59;1635531;87;21048;-72
2021/10/04 00:39:22;;;;;;;22.62;14.95;;;;;;;8.44;73.08;100730.33;1634712;87;21620;-72
2021/10/04 00:41:50;;;;;;;30.32;15.45;;;;;;;8.42;72.97;100728.41;1633017;87;21243;-70
2021/10/04 00:44:20;;;;;;;21.80;13.93;;;;;;;8.40;72.95;100730.59;1635175;87;21081;-71
2021/10/04 00:46:50;;;;;;;21.70;14.03;;;;;;;8.36;72.92;100729.52;1635346;87;21049;-71
2021/10/04 00:49:17;;;;;;;17.52;12.20;;;;;;;8.33;73.03;100727.30;1623339;87;21116;-72
2021/10/04 00:51:45;;;;;;;19.60;11.95;;;;;;;8.31;72.99;100724.83;1633476;87;21101;-72
2021/10/04 00:54:17;;;;;;;20.57;12.80;;;;;;;8.27;73.12;100727.30;1617029;87;21182;-73
2021/10/04 00:56:47;;;;;;;19.25;13.78;;;;;;;8.27;73.21;100736.91;1633466;87;21067;-71
2021/10/04 00:59:17;;;;;;;17.85;12.88;;;;;;;8.25;73.27;100733.64;1634301;86;21009;-72
2021/10/04 01:01:44;;;;;;;26.35;14.00;;;;;;;8.20;73.24;100736.92;1611013;87;21032;-71
2021/10/04 01:04:14;;;;;;;24.30;13.15;;;;;;;8.16;73.31;100739.38;1635209;86;21071;-71
2021/10/04 01:06:40;;;;;;;28.55;14.30;;;;;;;8.14;73.30;100749.27;1633845;87;21877;-72
2021/10/04 01:09:14;;;;;;;24.55;15.98;;;;;;;8.13;73.19;100749.55;1624080;87;21059;-71
2021/10/04 01:11:44;;;;;;;27.37;16.10;;;;;;;8.12;73.09;100743.79;1619047;87;21094;-72
2021/10/04 01:14:15;;;;;;;23.38;14.47;;;;;;;8.07;73.01;100736.92;1631918;87;21170;-72
2021/10/04 01:16:46;;;;;;;21.93;15.08;;;;;;;8.04;73.16;100732.78;1633277;87;21092;-72
2021/10/04 01:19:12;;;;;;;25.25;13.32;;;;;;;8.02;73.26;100737.72;1609884;87;21055;-71
2021/10/04 01:21:39;;;;;;;24.15;13.70;;;;;;;8.00;73.42;100739.36;1633776;87;21064;-72
2021/10/04 01:24:06;;;;;;;21.90;15.10;;;;;;;8.00;73.54;100735.81;1635894;87;21017;-72
2021/10/04 01:26:35;;;;;;;23.85;14.35;;;;;;;7.99;73.66;100740.47;1633825;87;21043;-72
2021/10/04 01:29:03;;;;;;;27.05;14.68;;;;;;;8.00;73.71;100740.73;1633838;87;21127;-71
2021/10/04 01:31:31;;;;;;;24.67;14.23;;;;;;;7.99;73.77;100739.10;1624210;87;21162;-72
2021/10/04 01:33:58;;;;;;;22.82;14.75;;;;;;;7.98;73.81;100738.84;1620011;88;21070;-72
2021/10/04 01:36:27;;;;;;;29.30;14.45;;;;;;;7.97;73.75;100738.55;1618260;88;21536;-71
2021/10/04 01:38:57;;;;;;;20.23;13.50;;;;;;;7.96;73.64;100739.66;1619225;88;21034;-71
2021/10/04 01:41:23;;;;;;;28.60;13.83;;;;;;;7.95;73.61;100746.22;1620135;88;21092;-70
2021/10/04 01:43:52;;;;;;;20.48;13.18;;;;;;;7.96;73.59;100745.68;1618499;88;21148;-70
2021/10/04 01:46:21;;;;;;;26.00;13.53;;;;;;;7.96;73.53;100742.39;1618636;86;21053;-71
2021/10/04 01:48:49;;;;;;;18.73;12.00;;;;;;;7.95;73.52;100742.10;1614004;88;21022;-72
2021/10/04 01:51:20;;;;;;;20.57;12.45;;;;;;;7.97;73.46;100745.94;1613513;88;21037;-72
2021/10/04 01:53:51;;;;;;;22.62;12.95;;;;;;;7.97;73.45;100745.41;1618333;88;21068;-71
2021/10/04 01:56:19;;;;;;;21.82;13.15;;;;;;;7.97;73.47;100747.31;1619066;86;21111;-72
2021/10/04 01:58:49;;;;;;;21.77;13.83;;;;;;;7.98;73.46;100749.81;1620445;88;21026;-72
2021/10/04 02:01:19;;;;;;;19.62;12.58;;;;;;;7.98;73.38;100749.81;1618126;88;21099;-72
2021/10/04 02:03:46;;;;;;;20.23;12.43;;;;;;;7.98;73.29;100749.81;1618145;87;21068;-69
2021/10/04 02:06:20;;;;;;;23.22;12.78;;;;;;;7.99;73.27;100747.88;1601386;88;21078;-71
2021/10/04 02:08:47;;;;;;;19.37;12.60;;;;;;;7.98;73.12;100748.98;1620527;88;21951;-72
2021/10/04 02:11:14;;;;;;;26.75;13.03;;;;;;;7.97;73.07;100754.18;1619013;88;21022;-71
2021/10/04 02:13:42;;;;;;;22.00;12.35;;;;;;;7.95;72.96;100751.70;1619861;88;21077;-70
2021/10/04 02:16:10;;;;;;;25.77;12.20;;;;;;;7.94;72.95;100759.68;1608893;88;21042;-71
2021/10/04 02:18:46;;;;;;;20.00;13.10;;;;;;;7.95;72.89;100763.25;1610277;88;21140;-71
2021/10/04 02:21:13;;;;;;;26.95;13.20;;;;;;;7.94;72.74;100754.19;1618324;88;21540;-70
2021/10/04 02:23:44;;;;;;;22.37;13.48;;;;;;;7.94;72.69;100763.80;1618803;88;21045;-71
2021/10/04 02:26:14;;;;;;;22.20;13.20;;;;;;;7.94;72.56;100756.94;1616216;88;21037;-72
2021/10/04 02:28:44;;;;;;;26.42;13.62;;;;;;;7.93;72.50;100759.41;1620094;88;21061;-71
2021/10/04 02:31:15;;;;;;;19.82;13.68;;;;;;;7.91;72.39;100758.31;1615244;88;21660;-71
2021/10/04 02:33:44;;;;;;;21.57;14.18;;;;;;;7.91;72.35;100758.86;1609212;87;21101;-71
2021/10/04 02:36:14;;;;;;;25.37;15.15;;;;;;;7.90;72.28;100762.67;1613136;88;21140;-71
2021/10/04 02:38:43;;;;;;;20.27;12.30;;;;;;;7.89;72.15;100763.78;1601459;88;21045;-72
2021/10/04 02:41:12;;;;;;;20.05;13.00;;;;;;;7.87;72.09;100761.85;1615779;88;21048;-71
2021/10/04 02:43:42;;;;;;;24.60;13.55;;;;;;;7.86;71.98;100765.16;1621244;86;21144;-72
2021/10/04 02:46:10;;;;;;;19.95;12.93;;;;;;;7.86;72.00;100768.45;1619503;88;21195;-72
2021/10/04 02:48:39;;;;;;;24.35;13.90;;;;;;;7.84;71.98;100771.47;1657877;85;21124;-71
2021/10/04 02:51:10;;;;;;;23.90;13.95;;;;;;;7.85;71.92;100766.78;1669414;85;21023;-71
2021/10/04 02:53:39;;;;;;;22.73;14.35;;;;;;;7.85;71.89;100764.03;1669473;84;21074;-71
2021/10/04 02:56:09;;;;;;;22.52;15.20;;;;;;;7.86;71.85;100765.16;1670852;85;21590;-71
2021/10/04 02:58:37;;;;;;;22.87;13.50;;;;;;;7.86;71.81;100767.91;1672406;85;21111;-73
2021/10/04 03:01:07;;;;;;;21.90;14.15;;;;;;;7.84;71.79;100763.23;1649873;85;21009;-71
2021/10/04 03:03:36;;;;;;;26.33;14.47;;;;;;;7.82;71.70;100764.58;1652088;85;21565;-72
2021/10/04 03:06:08;;;;;;;29.63;15.23;;;;;;;7.78;71.74;100762.39;1669181;85;21031;-71
2021/10/04 03:08:35;;;;;;;24.98;14.75;;;;;;;7.77;71.75;100767.61;1647996;85;21073;-71
2021/10/04 03:11:04;;;;;;;28.62;14.58;;;;;;;7.76;71.73;100765.14;1658831;85;22588;-72
2021/10/04 03:13:32;;;;;;;19.32;12.78;;;;;;;7.74;71.74;100766.78;1659182;84;21036;-72
2021/10/04 03:15:58;;;;;;;19.37;12.78;;;;;;;7.73;71.74;100777.46;1668345;84;21058;-73
2021/10/04 03:18:29;;;;;;;26.30;14.00;;;;;;;7.71;71.73;100782.39;1671643;84;21049;-72
2021/10/04 03:20:57;;;;;;;23.20;13.70;;;;;;;7.71;71.75;100777.47;1668457;85;21060;-71
2021/10/04 03:23:26;;;;;;;22.02;13.75;;;;;;;7.71;71.79;100776.91;1665890;85;21164;-72
2021/10/04 03:25:55;;;;;;;21.00;12.90;;;;;;;7.71;71.83;100776.09;1669979;84;21046;-71
2021/10/04 03:28:24;;;;;;;22.52;12.63;;;;;;;7.71;71.85;100785.13;1665369;85;21110;-71
2021/10/04 03:30:51;;;;;;;19.25;12.98;;;;;;;7.71;71.85;100781.02;1668644;85;21113;-70
2021/10/04 03:33:17;;;;;;;23.12;13.18;;;;;;;7.69;71.83;100775.00;1660254;84;22495;-70
2021/10/04 03:35:50;;;;;;;20.92;12.65;;;;;;;7.69;71.74;100774.16;1666009;85;21145;-72
2021/10/04 03:38:22;;;;;;;23.73;14.33;;;;;;;7.66;71.69;100772.23;1668743;85;21066;-72
2021/10/04 03:40:48;;;;;;;21.85;13.45;;;;;;;7.64;71.69;100782.64;1671853;85;21105;-72
2021/10/04 03:43:15;;;;;;;21.62;13.72;;;;;;;7.62;71.61;100786.23;1656748;85;21010;-71
2021/10/04 03:45:44;;;;;;;30.75;13.30;;;;;;;7.60;71.62;100780.17;1655347;85;21088;-72
2021/10/04 03:48:14;;;;;;;20.55;11.60;;;;;;;7.59;71.65;100780.45;1671226;85;21148;-72
2021/10/04 03:50:43;;;;;;;19.62;11.48;;;;;;;7.58;71.66;100781.52;1668377;84;21342;-72
2021/10/04 03:53:14;;;;;;;19.82;11.48;;;;;;;7.56;71.68;100783.17;1670659;85;21543;-72
2021/10/04 03:55:44;;;;;;;21.30;12.53;;;;;;;7.56;71.73;100787.28;1669237;84;21061;-71
2021/10/04 03:58:11;;;;;;;21.02;12.70;;;;;;;7.57;71.77;100788.11;1670581;84;21544;-71
2021/10/04 04:00:39;;;;;;;23.55;13.68;;;;;;;7.56;71.77;100791.39;1672872;85;21502;-71
2021/10/04 04:03:08;;;;;;;22.42;12.90;;;;;;;7.53;71.68;100794.14;1654898;85;21060;-71
2021/10/04 04:05:37;;;;;;;20.65;12.75;;;;;;;7.52;71.66;100794.41;1657599;85;21112;-71
2021/10/04 04:08:08;;;;;;;23.45;13.45;;;;;;;7.50;71.65;100785.09;1655485;85;21601;-71
2021/10/04 04:10:42;;;;;;;23.35;13.53;;;;;;;7.48;71.57;100792.75;1672449;85;21103;-72
2021/10/04 04:13:19;;;;;;;25.25;13.20;;;;;;;7.48;71.59;100800.98;1645844;85;21082;-70
2021/10/04 04:15:50;;;;;;;22.50;13.05;;;;;;;7.47;71.58;100793.02;1647742;86;21037;-71
2021/10/04 04:18:19;;;;;;;21.30;12.40;;;;;;;7.45;71.47;100805.63;1649128;86;21031;-71
2021/10/04 04:20:49;;;;;;;16.47;11.70;;;;;;;7.45;71.50;100811.66;1666980;85;21506;-71
2021/10/04 04:23:21;;;;;;;20.77;13.10;;;;;;;7.44;71.57;100814.93;1671902;85;21702;-72
2021/10/04 04:25:51;;;;;;;22.95;12.43;;;;;;;7.46;71.56;100816.03;1665296;85;21176;-72
2021/10/04 04:28:20;;;;;;;21.93;12.93;;;;;;;7.48;71.49;100818.80;1671148;85;21078;-72
2021/10/04 04:30:46;;;;;;;21.50;13.25;;;;;;;7.50;71.45;100827.59;1671138;84;21009;-72
2021/10/04 04:33:14;;;;;;;25.65;13.53;;;;;;;7.52;71.40;100824.59;1665965;85;21085;-72
2021/10/04 04:35:44;;;;;;;33.30;13.98;;;;;;;7.53;71.30;100831.17;1647140;86;21041;-71
2021/10/04 04:38:15;;;;;;;29.02;12.82;;;;;;;7.55;71.34;100824.88;1659182;86;21082;-72
2021/10/04 04:40:43;;;;;;;24.15;12.73;;;;;;;7.59;71.31;100826.52;1657138;85;21023;-72
2021/10/04 04:43:15;;;;;;;19.73;13.15;;;;;;;7.59;71.30;100821.03;1658246;85;21073;-71
2021/10/04 04:45:45;;;;;;;22.07;12.80;;;;;;;7.61;71.26;100819.41;1657553;86;21038;-73
2021/10/04 04:48:13;;;;;;;18.95;10.93;;;;;;;7.62;71.17;100817.77;1645871;85;21054;-72
2021/10/04 04:50:40;;;;;;;19.42;11.45;;;;;;;7.63;71.26;100810.34;1630857;85;21051;-72
2021/10/04 04:53:10;;;;;;;20.23;11.85;;;;;;;7.64;71.30;100810.64;1636411;85;21570;-72
2021/10/04 04:55:40;;;;;;;19.50;12.37;;;;;;;7.66;71.37;100816.13;1655983;85;21561;-71
2021/10/04 04:58:06;;;;;;;20.52;11.83;;;;;;;7.67;71.41;100812.30;1654954;85;21046;-71
2021/10/04 05:00:34;;;;;;;22.87;12.75;;;;;;;7.70;71.48;100816.95;1658400;85;22143;-72
2021/10/04 05:03:02;;;;;;;19.37;12.07;;;;;;;7.71;71.44;100816.69;1657080;85;21803;-71
2021/10/04 05:05:29;;;;;;;21.07;12.68;;;;;;;7.71;71.36;100819.42;1647594;85;21005;-71
2021/10/04 05:07:58;;;;;;;23.42;13.28;;;;;;;7.73;71.22;100819.19;1659630;85;21117;-72
2021/10/04 05:10:26;;;;;;;22.05;12.65;;;;;;;7.73;71.09;100819.98;1655163;85;21019;-70
2021/10/04 05:12:54;;;;;;;24.27;12.73;;;;;;;7.73;70.98;100821.36;1647035;85;21074;-72
2021/10/04 05:15:22;;;;;;;24.57;12.25;;;;;;;7.74;71.02;100820.83;1651573;85;21077;-71
2021/10/04 05:17:52;;;;;;;24.75;12.28;;;;;;;7.74;70.97;100824.94;1650213;85;21026;-71
2021/10/04 05:20:24;;;;;;;20.60;12.60;;;;;;;7.74;70.86;100820.83;1657551;85;21030;-71
2021/10/04 05:22:53;;;;;;;;;;;;;;;7.73;70.94;100821.36;1654031;85;21566;-72
2021/10/04 05:25:22;;;;;;;21.23;11.60;;;;;;;7.74;71.07;100827.14;1658058;85;20186;-72
2021/10/04 05:27:49;;;;;;;20.40;12.20;;;;;;;7.75;71.18;100832.90;1639054;85;21551;-72
2021/10/04 05:30:20;;;;;;;22.17;12.88;;;;;;;7.76;71.11;100828.25;1657832;85;21057;-71
2021/10/04 05:32:48;;;;;;;25.95;13.53;;;;;;;7.75;71.13;100828.78;1659443;85;21085;-72
2021/10/04 05:35:14;;;;;;;19.62;13.08;;;;;;;7.77;71.13;100836.75;1669420;84;21117;-72
2021/10/04 05:37:44;;;;;;;24.65;13.48;;;;;;;7.77;71.07;100835.38;1669503;85;21133;-71
2021/10/04 05:40:14;;;;;;;21.75;13.22;;;;;;;7.79;70.98;100840.89;1656797;85;21068;-72
2021/10/04 05:42:45;;;;;;;27.77;14.30;;;;;;;7.79;70.94;100846.38;1669271;85;21023;-71
2021/10/04 05:45:14;;;;;;;24.40;14.20;;;;;;;7.82;70.99;100846.91;1653625;85;21517;-71
2021/10/04 05:47:43;;;;;;;28.75;13.10;;;;;;;7.85;71.00;100846.36;1669164;85;21102;-73
2021/10/04 05:50:11;;;;;;;22.00;12.40;;;;;;;7.88;71.08;100845.28;1617747;86;21113;-72
2021/10/04 05:52:37;;;;;;;20.55;11.70;;;;;;;7.95;71.32;100850.52;1646744;86;21170;-72
2021/10/04 05:55:06;;;;;;;24.05;11.95;;;;;;;8.02;71.33;100849.72;1645089;86;21035;-72
2021/10/04 05:57:33;;;;;;;30.27;12.40;;;;;;;8.13;71.50;100841.52;1648447;85;21048;-72
2021/10/04 06:00:06;;;;;;;24.43;13.50;;;;;;;8.22;71.30;100845.36;1644507;86;21114;-73
2021/10/04 06:02:33;;;;;;;21.65;12.18;;;;;;;8.33;71.20;100845.38;1643933;86;21126;-72
2021/10/04 06:05:00;;;;;;;25.77;13.05;;;;;;;8.45;71.18;100843.75;1648087;86;21868;-71
2021/10/04 06:07:31;;;;;;;23.30;12.63;;;;;;;8.57;70.90;100850.38;1637721;86;21556;-73
2021/10/04 06:10:00;;;;;;;23.77;12.45;;;;;;;8.67;70.66;100844.90;1650423;86;21114;-72
2021/10/04 06:12:33;;;;;;;26.77;14.30;;;;;;;8.78;70.43;100853.14;1647232;86;21014;-71
2021/10/04 06:15:04;;;;;;;34.30;12.65;;;;;;;8.84;70.02;100850.66;1646087;86;21091;-71
2021/10/04 06:17:34;;;;;;;33.45;14.60;;;;;;;8.88;69.95;100847.10;1648960;86;21570;-72
2021/10/04 06:20:00;;;;;;;30.80;15.40;;;;;;;8.94;69.74;100847.91;1653207;85;21089;-72
2021/10/04 06:22:27;;;;;;;26.37;12.20;;;;;;;8.99;69.49;100845.15;1646218;86;21083;-72
2021/10/04 06:24:54;;;;;;;17.90;11.88;;;;;;;9.03;69.40;100851.47;1638864;86;21628;-72
2021/10/04 06:27:24;;;;;;;27.37;11.85;;;;;;;9.07;69.33;100842.95;1640744;86;21084;-72
2021/10/04 06:29:51;;;;;;;22.75;10.58;;;;;;;9.13;69.16;100843.20;1622369;87;21873;-72
2021/10/04 06:32:21;;;;;;;26.33;12.15;;;;;;;9.21;69.21;100854.20;1624320;87;21561;-72
2021/10/04 06:34:55;;;;;;;28.17;12.65;;;;;;;9.31;69.30;100852.81;1602879;88;21502;-72
2021/10/04 06:37:22;;;;;;;26.25;13.53;;;;;;;9.45;69.21;100858.52;1617129;88;21080;-72
2021/10/04 06:39:54;;;;;;;26.70;12.10;;;;;;;9.59;68.85;100857.39;1613631;88;21049;-72
2021/10/04 06:42:20;;;;;;;29.15;13.38;;;;;;;9.71;68.39;100858.98;1617049;88;21974;-71
2021/10/04 06:44:52;;;;;;;30.65;14.18;;;;;;;9.84;68.31;100857.00;1610995;88;21010;-71
2021/10/04 06:47:20;;;;;;;23.00;13.20;;;;;;;9.95;67.91;100855.03;1608394;88;21093;-73
2021/10/04 06:49:48;;;;;;;22.27;11.38;;;;;;;10.05;67.41;100856.91;1567444;90;21089;-73
2021/10/04 06:52:24;;;;;;;27.55;12.47;;;;;;;10.14;66.94;100862.64;1574520;89;21061;-71
2021/10/04 06:54:51;;;;;;;29.30;14.07;;;;;;;10.26;66.37;100865.59;1563527;90;21155;-70
2021/10/04 06:57:18;;;;;;;25.60;10.78;;;;;;;10.33;66.16;100857.84;1590760;89;21095;-70
2021/10/04 06:59:48;;;;;;;26.42;10.95;;;;;;;10.40;65.23;100861.11;1585415;88;21105;-71
2021/10/04 07:02:15;;;;;;;28.27;13.03;;;;;;;10.42;64.92;100863.58;1593144;88;21071;-72
2021/10/04 07:04:45;;;;;;;33.35;13.08;;;;;;;10.45;64.71;100863.00;1561716;90;21655;-71
2021/10/04 07:07:19;;;;;;;37.63;11.95;;;;;;;10.47;64.19;100864.37;1585553;89;21558;-72
2021/10/04 07:09:50;;;;;;;19.60;11.53;;;;;;;10.52;64.27;100862.16;1572655;89;21112;-71
2021/10/04 07:12:18;;;;;;;24.07;12.10;;;;;;;10.58;63.85;100870.65;1581499;88;21069;-72
2021/10/04 07:14:51;;;;;;;23.40;10.70;;;;;;;10.63;63.49;100873.91;1586735;89;21066;-71
2021/10/04 07:17:26;;;;;;;16.97;10.65;;;;;;;10.70;63.56;100868.07;1564550;91;21572;-72
2021/10/04 07:19:55;;;;;;;18.37;10.48;;;;;;;10.79;62.86;100880.69;1563335;91;21253;-72
2021/10/04 07:22:22;;;;;;;18.32;10.53;;;;;;;10.89;62.68;100871.50;1566343;90;21088;-71
2021/10/04 07:24:54;;;;;;;22.13;10.53;;;;;;;10.98;62.68;100870.33;1539593;91;21049;-71
2021/10/04 07:27:21;;;;;;;18.62;11.22;;;;;;;11.05;62.38;100864.73;1562273;89;21082;-72
2021/10/04 07:29:52;;;;;;;18.12;10.43;;;;;;;11.15;62.26;100869.34;1560995;89;21121;-70
2021/10/04 07:32:18;;;;;;;18.92;10.80;;;;;;;11.25;62.29;100872.55;1555636;89;21143;-71
2021/10/04 07:34:45;;;;;;;16.20;10.08;;;;;;;11.34;62.19;100871.36;1593517;88;21089;-71
2021/10/04 07:37:11;;;;;;;19.77;10.98;;;;;;;11.42;62.09;100870.72;1606107;87;21130;-71
2021/10/04 07:39:38;;;;;;;16.42;10.93;;;;;;;11.52;61.74;100869.78;1613999;87;22248;-71
2021/10/04 07:42:05;;;;;;;22.98;9.98;;;;;;;11.62;61.19;100865.23;1607674;88;21124;-71
2021/10/04 07:44:37;;;;;;;21.30;9.60;;;;;;;11.68;60.63;100866.30;1607023;88;21835;-72
2021/10/04 07:47:08;;;;;;;20.32;9.78;;;;;;;11.75;60.34;100865.10;1615259;88;21080;-71
2021/10/04 07:49:36;;;;;;;16.55;10.78;;;;;;;11.82;60.12;100872.48;1617039;88;21100;-72
2021/10/04 07:52:06;;;;;;;17.40;10.82;;;;;;;11.88;59.59;100869.07;1617925;88;21057;-72
2021/10/04 07:54:33;;;;;;;15.38;9.05;;;;;;;11.95;59.20;100876.99;1617066;88;21076;-71
2021/10/04 07:56:59;;;;;;;14.30;9.68;;;;;;;12.02;59.04;100876.91;1610655;88;21107;-72
2021/10/04 07:59:36;;;;;;;18.02;9.90;;;;;;;12.12;58.32;100880.66;1618804;88;21144;-72
2021/10/04 08:02:02;;;;;;;15.20;9.18;;;;;;;12.23;57.88;100884.13;1617987;88;21552;-72
2021/10/04 08:04:29;;;;;;;15.23;10.20;;;;;;;12.32;57.62;100877.37;1619926;87;21077;-72
2021/10/04 08:07:02;;;;;;;14.55;9.90;;;;;;;12.37;57.74;100870.36;1615513;88;21036;-71
2021/10/04 08:09:32;;;;;;;15.38;8.83;;;;;;;12.48;57.21;100875.19;1619214;88;21125;-72
2021/10/04 08:12:04;;;;;;;15.08;9.23;;;;;;;12.56;56.58;100865.38;1613567;87;21113;-72
2021/10/04 08:14:36;;;;;;;;;;;;;;;12.63;55.78;100874.95;1622631;87;21017;-71
2021/10/04 08:17:08;;;;;;;15.98;7.78;;;;;;;12.72;55.46;100867.34;1613014;88;20239;-71
2021/10/04 08:19:41;;;;;;;12.35;7.30;;;;;;;12.79;54.60;100866.41;1598545;88;22360;-71
2021/10/04 08:22:12;;;;;;;15.40;7.80;;;;;;;12.87;53.86;100863.50;1615887;87;21098;-71
2021/10/04 08:24:41;;;;;;;15.50;7.97;;;;;;;12.94;53.69;100854.80;1615474;88;21096;-71
2021/10/04 08:27:11;;;;;;;15.83;7.17;;;;;;;13.01;53.29;100860.22;1607654;88;21021;-72
2021/10/04 08:29:41;;;;;;;12.15;7.45;;;;;;;13.10;53.07;100856.75;1609549;88;21024;-73
2021/10/04 08:32:10;;;;;;;11.88;7.25;;;;;;;13.19;53.16;100863.76;1592900;88;21080;-72
2021/10/04 08:34:42;;;;;;;19.20;8.05;;;;;;;13.29;53.67;100862.19;1610681;87;21063;-72
2021/10/04 08:37:14;;;;;;;14.63;7.08;;;;;;;13.39;52.90;100867.53;1626463;87;21181;-72
2021/10/04 08:39:43;;;;;;;18.15;6.60;;;;;;;13.49;52.65;100867.89;1627192;87;21139;-72
2021/10/04 08:42:20;;;;;;;15.75;6.85;;;;;;;13.61;52.71;100868.80;1625804;86;21127;-70
2021/10/04 08:44:59;;;;;;;18.75;7.08;;;;;;;13.72;52.65;100869.97;1624163;87;21656;-72
2021/10/04 08:47:38;;;;;;;14.23;6.87;;;;;;;13.83;52.30;100868.66;1622149;87;21100;-72
2021/10/04 08:50:13;;;;;;;15.70;6.17;;;;;;;13.96;51.97;100873.08;1615139;87;21596;-72
2021/10/04 08:52:47;;;;;;;22.93;5.80;;;;;;;14.07;51.27;100875.08;1623357;87;21589;-70
2021/10/04 08:55:18;;;;;;;13.83;6.10;;;;;;;14.19;51.18;100875.92;1633116;87;21572;-71
2021/10/04 08:57:46;;;;;;;13.60;6.37;;;;;;;14.29;51.57;100869.31;1622356;87;21201;-72
2021/10/04 09:00:16;;;;;;;18.30;5.33;;;;;;;14.40;50.95;100871.30;1631677;87;21030;-72
2021/10/04 09:02:46;;;;;;;6.85;4.97;;;;;;;14.47;50.76;100875.82;1630706;87;21069;-72
2021/10/04 09:05:27;;;;;;;16.12;4.72;;;;;;;14.55;50.54;100877.84;1630680;87;21081;-72
2021/10/04 09:08:16;;;;;;;8.95;5.10;;;;;;;14.63;49.95;100873.52;1627712;87;21064;-74
2021/10/04 09:10:44;;;;;;;8.88;5.00;;;;;;;14.69;48.78;100870.86;1627488;87;21079;-72
2021/10/04 09:13:15;;;;;;;8.60;4.75;;;;;;;14.79;48.50;100871.75;1627212;85;21156;-72
2021/10/04 09:15:49;;;;;;;10.13;4.10;;;;;;;14.86;47.74;100873.52;1626380;87;21040;-70
2021/10/04 09:18:30;;;;;;;8.63;4.92;;;;;;;14.91;46.86;100871.20;1632189;87;21105;-72
2021/10/04 09:21:09;;;;;;;11.70;5.40;;;;;;;14.97;47.94;100868.55;1608771;87;21107;-71
2021/10/04 09:23:52;;;;;;;6.90;4.33;;;;;;;15.04;46.85;100868.09;1626528;87;21025;-71
2021/10/04 09:26:32;;;;;;;7.45;4.62;;;;;;;15.12;45.84;100860.94;1635044;86;21102;-70
2021/10/04 09:29:08;;;;;;;8.80;4.00;;;;;;;15.18;45.57;100866.62;1623021;87;21115;-71
2021/10/04 09:31:43;;;;;;;4.83;3.22;;;;;;;15.24;45.35;100870.06;1627729;86;21099;-71
2021/10/04 09:34:20;;;;;;;8.90;3.77;;;;;;;15.26;43.83;100867.23;1620457;86;21071;-71
2021/10/04 09:36:54;;;;;;;11.15;3.75;;;;;;;15.30;43.25;100860.47;1614006;88;21178;-70
2021/10/04 09:39:32;;;;;;;7.42;3.20;;;;;;;15.35;43.64;100856.73;1615675;88;21116;-71
2021/10/04 09:42:17;;;;;;;5.33;3.12;;;;;;;15.41;43.70;100860.98;1618885;88;21562;-71
2021/10/04 09:44:55;;;;;;;9.80;3.42;;;;;;;15.46;43.25;100853.91;1617171;88;21124;-71
2021/10/04 09:47:34;;;;;;;11.53;3.60;;;;;;;15.52;43.21;100855.42;1620261;88;21128;-72
2021/10/04 09:50:06;;;;;;;11.48;3.22;;;;;;;15.56;42.54;100848.06;1605462;88;21593;-73
2021/10/04 09:53:01;;;;;;;6.15;3.25;;;;;;;15.64;42.08;100842.86;1610781;87;21208;-72
2021/10/04 09:55:40;;;;;;;4.62;3.10;;;;;;;15.70;41.93;100849.89;1618590;88;21093;-71
2021/10/04 09:58:20;;;;;;;6.45;3.15;;;;;;;15.77;41.83;100853.59;1620209;87;21059;-70
2021/10/04 10:00:55;;;;;;;12.03;3.65;;;;;;;15.82;40.59;100854.83;1611798;88;21049;-72
2021/10/04 10:03:26;;;;;;;6.10;2.87;;;;;;;15.89;41.40;100852.96;1613759;88;21089;-71
2021/10/04 10:05:59;;;;;;;3.58;2.77;;;;;;;15.97;41.21;100844.41;1610724;88;21159;-71
2021/10/04 10:08:28;;;;;;;3.95;3.12;;;;;;;16.03;40.40;100837.57;1625537;88;21120;-70
2021/10/04 10:11:05;;;;;;;6.10;2.70;;;;;;;16.07;40.86;100830.20;1610072;87;21096;-71
2021/10/04 10:13:35;;;;;;;7.80;2.77;;;;;;;16.15;40.16;100834.98;1617217;88;21089;-71
2021/10/04 10:16:15;;;;;;;10.65;2.67;;;;;;;16.21;39.49;100832.83;1617362;88;21146;-70
2021/10/04 10:19:05;;;;;;;3.85;2.62;;;;;;;16.21;39.41;100826.45;1610678;87;22016;-72
2021/10/04 10:21:35;;;;;;;8.38;3.08;;;;;;;16.24;39.45;100826.61;1618180;87;21538;-71
2021/10/04 10:24:07;;;;;;;4.55;2.30;;;;;;;16.28;39.35;100826.22;1597576;88;21185;-71
2021/10/04 10:26:59;;;;;;;7.95;2.90;;;;;;;16.30;39.50;100825.88;1621507;88;21114;-71
2021/10/04 10:29:33;;;;;;;3.90;2.77;;;;;;;16.27;38.87;100822.38;1619229;87;21186;-70
2021/10/04 10:32:09;;;;;;;5.60;3.17;;;;;;;16.19;38.92;100826.77;1621975;88;21101;-73
2021/10/04 10:34:45;;;;;;;5.40;3.20;;;;;;;16.08;39.31;100812.39;1614929;87;21011;-71
2021/10/04 10:37:28;;;;;;;6.50;2.98;;;;;;;16.02;39.60;100817.88;1606800;88;21062;-71
2021/10/04 10:40:13;;;;;;;5.00;3.17;;;;;;;15.97;39.76;100811.86;1599787;88;21023;-73
2021/10/04 10:42:45;;;;;;;5.78;3.30;;;;;;;15.98;40.59;100811.30;1610635;88;21031;-70
2021/10/04 10:45:15;;;;;;;7.83;3.42;;;;;;;16.02;40.72;100813.12;1610595;88;21559;-71
2021/10/04 10:47:49;;;;;;;5.28;3.42;;;;;;;16.12;41.21;100816.73;1607793;88;21078;-70
2021/10/04 10:50:29;;;;;;;4.67;3.40;;;;;;;16.18;40.39;100812.08;1591246;88;21622;-70
2021/10/04 10:53:05;;;;;;;8.08;3.83;;;;;;;16.25;40.71;100814.92;1611961;88;21153;-71
2021/10/04 10:55:40;;;;;;;5.45;3.62;;;;;;;16.34;40.43;100817.70;1593852;88;21038;-73
2021/10/04 10:58:17;;;;;;;4.55;3.00;;;;;;;16.42;41.69;100807.98;1607965;88;21107;-69
2021/10/04 11:01:05;;;;;;;7.55;3.80;;;;;;;16.50;40.91;100807.70;1609376;88;21182;-70
2021/10/04 11:03:38;;;;;;;3.98;3.05;;;;;;;16.61;40.77;100798.45;1610423;88;21571;-70
2021/10/04 11:06:09;;;;;;;4.83;3.15;;;;;;;16.68;39.93;100810.47;1604403;88;21089;-70
2021/10/04 11:08:55;;;;;;;4.80;3.50;;;;;;;16.71;39.56;100797.28;1612201;88;21523;-70
2021/10/04 11:11:27;;;;;;;3.92;3.00;;;;;;;16.71;39.65;100797.28;1640948;86;21644;-69
2021/10/04 11:14:09;;;;;;;3.90;2.95;;;;;;;16.72;39.64;100791.16;1640126;86;21038;-69
2021/10/04 11:16:49;;;;;;;6.83;3.37;;;;;;;16.71;39.52;100788.11;1645080;86;21112;-70
2021/10/04 11:19:23;;;;;;;6.87;3.27;;;;;;;16.74;39.57;100785.48;1628050;86;21609;-70
2021/10/04 11:21:55;;;;;;;3.02;2.62;;;;;;;16.74;38.83;100786.88;1620966;86;21125;-71
2021/10/04 11:24:26;;;;;;;6.47;2.83;;;;;;;16.67;38.85;100787.38;1647181;86;21122;-71
2021/10/04 11:26:55;;;;;;;5.10;3.30;;;;;;;16.65;39.43;100791.06;1636209;86;21137;-72
2021/10/04 11:29:21;;;;;;;6.03;2.98;;;;;;;16.69;39.43;100798.74;1631804;86;21112;-72
2021/10/04 11:31:50;;;;;;;8.35;3.08;;;;;;;16.71;39.57;100797.84;1628758;86;21555;-73
2021/10/04 11:34:20;;;;;;;4.75;3.10;;;;;;;16.78;39.29;100792.03;1628869;86;21155;-70
2021/10/04 11:36:56;;;;;;;6.28;3.25;;;;;;;16.78;39.87;100789.81;1645045;86;21065;-72